Language selection

Features

My Weather Profile Weather Topics  | 

Banquereau: Past 24 Hour Conditions

 

West Chedabucto Bay - 44489

01:00 PM ADT 22 April 2021Buoy position: 45.49N 61.14W
Disclaimer

This table is a summary of hourly weather conditions for the past 24 hours.
Please note that these observations might not always be representative of weather conditions over their associated marine area.

Date / Time
(ADT)
Wind(knots) Wave height(m) Wave period(s) Pressure(kPa) Air tempC) Water tempC)
22 April 2021
13:00 SSW 20 gust 23 1.2 5.8 99.2 6 4
12:00 SSW 20 gust 25 1.3 5.2 99.3 6 4
11:00 SSE 16 gust 18 1.2 5.1 99.3 6 4
10:00 SSE 21 gust 24 1.3 4.8 99.3 7 4
9:00 SE 24 gust 29 1.1 4.3 99.4 7 4
8:00 ESE 19 gust 25 0.7 3.7 99.6 6 4
7:00 ESE 13 gust 16 0.6 3.8 99.8 5 4
6:00 ESE 13 gust 16 0.6 3.5 100.0 5 4
5:00 SE 15 gust 17 0.8 3.4 100.1 6 4
4:00 SSE 17 gust 20 0.7 3.1 100.2 7 4
3:00 E 9 gust 10 0.3 3.0 100.4 6 4
2:00 E 5 gust 10 0.1 2.6 100.6 6 4
1:00 ENE 9 gust 11 0.1 2.5 100.7 5 4
0:00 E 8 gust 9 0.1 2.6 100.9 5 4
21 April 2021
23:00 ESE 5 gust 6 0.2 2.4 101.0 5 4
22:00 S 10 gust 11 0.2 2.4 101.1 5 4
21:00 SSE 6 gust 9 0.3 2.5 101.1 6 4
20:00 SE 8 gust 10 0.4 2.6 101.1 5 4
19:00 SE 9 gust 10 0.4 2.7 101.1 6 4
18:00 S 13 gust 15 0.5 2.7 101.1 6 4
17:00 S 11 gust 13 0.4 2.6 101.1 7 4
16:00 SSW 15 gust 17 0.4 2.6 101.1 8 4
15:00 SSW 12 gust 13 0.4 2.6 101.2 8 4
14:00 SSW 12 gust 15 0.2 2.2 101.2 8 4
13:00 S 12 gust 14 0.1 2.9 101.3 8 4

Zoom-in to make a selection

Map of Atlantic - Newfoundland marine weather areas Banquereau - 44139 East Chedabucto Bay - 44488 West Chedabucto Bay - 44489 Blanc-Sablon Airport Cap Whittle Chevery Natashquan Airport Heath Point Îles de la Madeleine Airport Miscou Island Eskasoni (First Nations) Grand Étang Ingonish Beach North Mountain St.Paul Island J.A. Douglas McCurdy Sydney Airport Charlottetown Airport East Point North Cape Argentia Bonavista Burgeo Cape Race Corner Brook Daniel's Harbour Englee Ferolle Point La Scie Port aux Basques Rocky Harbour Sagona Island St. Anthony Airport St. John's Int'l Airport St. Lawrence Stephenville Airport Twillingate Winterland Branch Hill Wreckhouse Grates Cove Pool's Island Marticot Island Long Pond Cartwright Airport Mary's Harbour
Legend:
buoy Buoy
land station Land Station

Atlantic - Newfoundland Area

Another Region

What we are doing

Date modified: